Time;durP1;ratioP1;P1;durP2;ratioP2;P2;SDS_P1;SDS_P2;PMS_P1;PMS_P2;Temp;Humidity;BMP_temperature;BMP_pressure;BME280_temperature;BME280_humidity;BME280_pressure;Samples;Min_cycle;Max_cycle;Signal;HPM_P1;HPM_P2
2022/11/21 00:01:51;;;;;;;1.57;0.70;;;;;;;4.45;100.00;99047.25;4990167;28;20307;-62
2022/11/21 00:04:16;;;;;;;1.80;0.90;;;;;;;4.47;100.00;99049.72;5010130;28;20498;-63
2022/11/21 00:06:42;;;;;;;4.10;0.80;;;;;;;4.45;100.00;99038.75;5011018;28;20178;-61
2022/11/21 00:09:07;;;;;;;0.83;0.70;;;;;;;4.40;100.00;99055.97;5014561;28;20686;-63
2022/11/21 00:11:32;;;;;;;0.93;0.60;;;;;;;4.43;100.00;99061.75;5004343;28;20208;-61
2022/11/21 00:13:58;;;;;;;1.93;0.93;;;;;;;4.56;100.00;99059.44;5013777;28;20195;-63
2022/11/21 00:16:23;;;;;;;1.43;0.80;;;;;;;4.45;100.00;99051.50;5003465;28;20222;-62
2022/11/21 00:18:48;;;;;;;0.90;0.70;;;;;;;4.50;100.00;99044.47;5028467;28;20250;-62
2022/11/21 00:21:16;;;;;;;1.43;0.60;;;;;;;4.47;100.00;99045.44;5023774;28;20222;-62
2022/11/21 00:23:42;;;;;;;2.37;1.10;;;;;;;4.43;100.00;99040.53;5016593;28;20189;-63
2022/11/21 00:26:10;;;;;;;2.33;1.10;;;;;;;4.44;100.00;99037.94;5013332;28;20510;-62
2022/11/21 00:28:36;;;;;;;2.67;0.93;;;;;;;4.36;100.00;99030.63;5016108;28;20178;-62
2022/11/21 00:31:02;;;;;;;2.50;1.30;;;;;;;4.41;100.00;99040.63;4978476;28;20230;-63
2022/11/21 00:33:27;;;;;;;5.33;1.13;;;;;;;4.45;100.00;99038.75;5018667;28;20683;-62
2022/11/21 00:35:53;;;;;;;4.33;1.43;;;;;;;4.43;100.00;99038.84;5034489;28;20178;-63
2022/11/21 00:38:18;;;;;;;2.93;1.07;;;;;;;4.39;100.00;99037.34;5033303;28;20232;-63
2022/11/21 00:40:44;;;;;;;3.77;1.50;;;;;;;4.46;100.00;99036.13;5012081;28;20212;-62
2022/11/21 00:43:10;;;;;;;1.50;1.10;;;;;;;4.53;100.00;99050.25;5004482;28;20194;-62
2022/11/21 00:45:35;;;;;;;7.17;1.30;;;;;;;4.49;100.00;99041.09;5030639;28;20995;-63
2022/11/21 00:48:00;;;;;;;4.13;1.40;;;;;;;4.44;100.00;99037.94;5023041;28;20183;-63
2022/11/21 00:50:26;;;;;;;4.17;1.30;;;;;;;4.46;100.00;99038.69;5019299;28;20240;-63
2022/11/21 00:52:55;;;;;;;3.57;1.47;;;;;;;4.46;100.00;99031.03;5033078;28;20211;-64
2022/11/21 00:55:21;;;;;;;5.43;1.70;;;;;;;4.46;100.00;99035.31;5028358;28;20215;-61
2022/11/21 00:57:46;;;;;;;6.80;1.57;;;;;;;4.49;100.00;99027.53;5033502;28;20213;-64
2022/11/21 01:00:12;;;;;;;7.03;1.77;;;;;;;4.49;100.00;99025.81;5023522;28;20224;-62
2022/11/21 01:02:37;;;;;;;7.77;1.87;;;;;;;4.57;100.00;99022.91;5022566;28;20202;-62
2022/11/21 01:05:03;;;;;;;7.30;1.80;;;;;;;4.57;100.00;99027.19;5017577;28;20258;-62
2022/11/21 01:07:28;;;;;;;10.57;1.90;;;;;;;4.65;100.00;99018.28;5033003;28;20240;-63
2022/11/21 01:09:54;;;;;;;9.20;2.83;;;;;;;4.63;100.00;99014.16;5033447;28;20210;-62
2022/11/21 01:12:19;;;;;;;5.90;2.13;;;;;;;4.66;100.00;99011.44;5022520;28;20229;-62
2022/11/21 01:14:44;;;;;;;8.47;2.20;;;;;;;4.80;100.00;99000.59;5033625;28;20182;-62
2022/11/21 01:17:10;;;;;;;8.40;2.40;;;;;;;4.79;100.00;98993.88;5033188;28;20175;-62
2022/11/21 01:19:35;;;;;;;7.43;2.30;;;;;;;4.91;100.00;98987.34;5033503;28;20205;-62
2022/11/21 01:22:00;;;;;;;9.30;2.50;;;;;;;4.84;100.00;98979.19;5022572;28;20274;-62
2022/11/21 01:24:26;;;;;;;13.57;2.50;;;;;;;4.89;100.00;98984.03;5033147;28;20706;-64
2022/11/21 01:26:53;;;;;;;9.50;2.70;;;;;;;4.80;100.00;98983.59;5015333;28;20190;-63
2022/11/21 01:29:18;;;;;;;8.80;2.43;;;;;;;4.84;100.00;98995.28;5031867;28;20336;-62
2022/11/21 01:31:44;;;;;;;7.17;2.33;;;;;;;4.87;100.00;98988.41;5005834;28;20312;-62
2022/11/21 01:34:09;;;;;;;4.33;2.17;;;;;;;4.84;100.00;98992.75;5032784;28;20268;-63
2022/11/21 01:36:35;;;;;;;10.43;2.30;;;;;;;4.83;100.00;98992.81;5032758;28;20852;-62
2022/11/21 01:39:05;;;;;;;9.20;2.77;;;;;;;4.86;100.00;98990.09;5031967;28;20185;-61
2022/11/21 01:41:34;;;;;;;11.33;2.50;;;;;;;4.81;100.00;98984.41;5021725;28;20234;-63
2022/11/21 01:44:19;;;;;;;12.10;3.00;;;;;;;4.81;100.00;98981.88;5015287;28;20182;-61
2022/11/21 01:46:45;;;;;;;8.23;2.67;;;;;;;4.78;100.00;98974.38;5019297;28;20176;-61
2022/11/21 01:49:31;;;;;;;9.50;2.73;;;;;;;4.82;100.00;98983.53;5012203;28;20184;-62
2022/11/21 01:52:03;;;;;;;13.00;2.77;;;;;;;4.83;100.00;98973.25;5021794;28;20691;-62
2022/11/21 01:54:56;;;;;;;10.83;3.00;;;;;;;4.78;100.00;98976.94;5020268;28;20653;-62
2022/11/21 01:57:22;;;;;;;19.27;3.20;;;;;;;4.87;100.00;98975.66;5009104;28;20191;-62
2022/11/21 01:59:57;;;;;;;10.50;2.80;;;;;;;4.78;100.00;98987.94;5029987;28;20543;-61
2022/11/21 02:02:26;;;;;;;11.80;2.60;;;;;;;4.75;100.00;98984.72;5008781;28;20757;-62
2022/11/21 02:04:53;;;;;;;12.70;2.63;;;;;;;4.68;100.00;98990.09;5018922;28;20203;-62
2022/11/21 02:07:21;;;;;;;11.57;3.10;;;;;;;4.79;100.00;98998.97;5014146;28;20216;-62
2022/11/21 02:09:50;;;;;;;11.40;3.17;;;;;;;4.74;100.00;99006.84;5031116;28;20230;-62
2022/11/21 02:12:45;;;;;;;13.10;3.10;;;;;;;4.85;100.00;99004.59;5000944;28;20756;-64
2022/11/21 02:15:11;;;;;;;12.10;2.83;;;;;;;4.79;100.00;99001.53;5022332;28;20784;-62
2022/11/21 02:17:36;;;;;;;12.47;3.37;;;;;;;4.77;100.00;98999.03;5031904;28;20219;-62
2022/11/21 02:20:06;;;;;;;11.67;2.90;;;;;;;4.81;100.00;99002.25;5032162;28;20177;-66
2022/11/21 02:23:01;;;;;;;8.23;2.67;;;;;;;4.66;100.00;99001.25;5020817;28;20221;-63
2022/11/21 02:25:38;;;;;;;13.50;3.47;;;;;;;4.81;100.00;99005.63;5024932;28;20278;-62
2022/11/21 02:28:10;;;;;;;11.77;2.67;;;;;;;4.66;100.00;98997.00;5016488;28;20193;-62
2022/11/21 02:30:38;;;;;;;12.20;3.03;;;;;;;4.70;100.00;98997.66;5018828;28;20329;-63
2022/11/21 02:33:04;;;;;;;13.27;3.30;;;;;;;4.74;100.00;98996.63;5013961;28;20184;-62
2022/11/21 02:35:29;;;;;;;8.23;2.57;;;;;;;4.77;100.00;98993.13;5031019;28;20211;-63
2022/11/21 02:37:58;;;;;;;14.53;3.17;;;;;;;4.75;100.00;98993.19;5031603;28;20176;-63
2022/11/21 02:40:30;;;;;;;10.43;3.23;;;;;;;4.73;100.00;98994.97;5018784;28;20283;-63
2022/11/21 02:42:59;;;;;;;11.80;3.20;;;;;;;4.78;100.00;98995.59;5031120;28;20201;-62
2022/11/21 02:45:30;;;;;;;10.53;2.63;;;;;;;4.70;100.00;98997.66;5031628;28;20535;-62
2022/11/21 02:47:56;;;;;;;14.07;3.10;;;;;;;4.80;100.00;99003.16;5030151;28;20178;-62
2022/11/21 02:50:30;;;;;;;11.47;3.13;;;;;;;4.75;100.00;99011.03;5017187;28;20281;-63
2022/11/21 02:52:56;;;;;;;15.33;2.97;;;;;;;4.79;100.00;99006.63;5006620;28;20231;-62
2022/11/21 02:55:22;;;;;;;13.50;3.00;;;;;;;4.74;100.00;99013.63;5031578;28;20187;-63
2022/11/21 02:57:48;;;;;;;8.43;2.40;;;;;;;4.67;100.00;99011.38;5010267;28;20206;-62
2022/11/21 03:00:14;;;;;;;14.60;3.43;;;;;;;4.69;100.00;99007.03;5018030;28;20194;-62
2022/11/21 03:02:39;;;;;;;8.93;2.57;;;;;;;4.72;100.00;99011.16;5030142;28;20245;-63
2022/11/21 03:05:07;;;;;;;10.73;2.50;;;;;;;4.59;100.00;99005.84;5031623;28;20179;-62
2022/11/21 03:07:32;;;;;;;9.67;2.67;;;;;;;4.66;100.00;99011.44;5029817;28;20615;-63
2022/11/21 03:09:57;;;;;;;7.63;2.20;;;;;;;4.69;100.00;99016.41;5031202;28;20188;-62
2022/11/21 03:12:23;;;;;;;11.90;2.70;;;;;;;4.65;100.00;99007.25;5019650;28;20280;-63
2022/11/21 03:14:48;;;;;;;10.37;2.83;;;;;;;4.65;100.00;99010.66;5031415;28;20194;-63
2022/11/21 03:17:13;;;;;;;9.47;2.67;;;;;;;4.68;100.00;99012.22;5031161;28;20194;-62
2022/11/21 03:19:39;;;;;;;8.40;2.40;;;;;;;4.71;100.00;99006.16;5031426;28;20187;-63
2022/11/21 03:22:04;;;;;;;4.80;2.00;;;;;;;4.66;100.00;99014.84;5020984;28;20314;-63
2022/11/21 03:24:29;;;;;;;6.53;2.40;;;;;;;4.65;100.00;99015.75;5031367;28;20182;-62
2022/11/21 03:26:55;;;;;;;8.10;2.27;;;;;;;4.76;100.00;99025.41;5030941;28;20201;-63
2022/11/21 03:29:20;;;;;;;8.53;2.17;;;;;;;4.71;100.00;99029.06;5013328;28;20202;-62
2022/11/21 03:31:45;;;;;;;6.40;2.30;;;;;;;4.74;100.00;99028.91;5002221;28;20226;-62
2022/11/21 03:34:11;;;;;;;8.53;2.00;;;;;;;4.72;100.00;99035.81;5030948;28;20174;-64
2022/11/21 03:36:36;;;;;;;6.90;2.30;;;;;;;4.74;100.00;99034.00;5031082;28;20183;-64
2022/11/21 03:39:01;;;;;;;7.27;2.10;;;;;;;4.75;100.00;99035.66;5031205;28;20176;-64
2022/11/21 03:41:34;;;;;;;7.53;2.53;;;;;;;4.74;100.00;99027.22;5022191;28;20230;-63
2022/11/21 03:44:05;;;;;;;7.40;1.90;;;;;;;4.57;100.00;99037.38;5017366;28;20600;-63
2022/11/21 03:46:34;;;;;;;5.40;1.67;;;;;;;4.72;100.00;99034.09;5035026;28;20185;-63
2022/11/21 03:48:59;;;;;;;6.17;1.63;;;;;;;4.62;100.00;99028.59;5014156;28;20262;-63
2022/11/21 03:51:25;;;;;;;3.50;2.03;;;;;;;4.58;100.00;99039.03;5014500;28;20396;-62
2022/11/21 03:53:51;;;;;;;6.83;2.07;;;;;;;4.53;100.00;99040.06;5034714;28;20184;-63
2022/11/21 03:56:16;;;;;;;3.50;1.73;;;;;;;4.50;100.00;99021.53;5034606;28;20190;-64
2022/11/21 03:58:42;;;;;;;5.00;1.70;;;;;;;4.51;100.00;99031.69;5035058;28;20174;-64
2022/11/21 04:01:08;;;;;;;8.33;1.93;;;;;;;4.47;100.00;99035.25;5003439;28;20227;-63
2022/11/21 04:03:33;;;;;;;5.70;1.87;;;;;;;4.60;100.00;99029.56;5042343;28;20579;-63
2022/11/21 04:05:59;;;;;;;4.17;1.53;;;;;;;4.56;100.00;99031.44;5035074;28;20202;-64
2022/11/21 04:08:25;;;;;;;3.90;1.50;;;;;;;4.65;100.00;99040.38;5033991;28;20276;-63
2022/11/21 04:10:51;;;;;;;5.53;1.80;;;;;;;4.53;100.00;99029.06;5013131;28;20271;-64
2022/11/21 04:13:17;;;;;;;6.97;1.90;;;;;;;4.57;100.00;99037.38;5023675;28;20242;-63
2022/11/21 04:15:44;;;;;;;2.43;1.57;;;;;;;4.53;100.00;99034.16;5021328;28;20694;-63
2022/11/21 04:18:10;;;;;;;2.90;1.73;;;;;;;4.56;100.00;99036.53;5024091;28;20182;-63
2022/11/21 04:20:36;;;;;;;6.53;1.77;;;;;;;4.43;100.00;99033.75;5030927;28;20309;-63
2022/11/21 04:23:01;;;;;;;6.23;2.00;;;;;;;4.42;100.00;99036.38;5012911;28;20274;-64
2022/11/21 04:25:26;;;;;;;4.30;1.57;;;;;;;4.40;100.00;99038.16;5026135;28;20182;-65
2022/11/21 04:27:55;;;;;;;4.57;1.33;;;;;;;4.58;100.00;99032.19;5033989;28;20222;-63
2022/11/21 04:30:21;;;;;;;6.80;1.60;;;;;;;4.57;100.00;99032.28;4985717;28;20236;-63
2022/11/21 04:32:48;;;;;;;3.83;1.97;;;;;;;4.52;100.00;99032.50;5032892;28;20214;-64
2022/11/21 04:35:13;;;;;;;3.07;1.37;;;;;;;4.45;100.00;99033.66;5013464;28;20179;-64
2022/11/21 04:37:39;;;;;;;4.83;1.73;;;;;;;4.46;100.00;99038.69;5032605;28;20174;-63
2022/11/21 04:40:04;;;;;;;3.50;1.50;;;;;;;4.36;100.00;99037.47;5023913;28;20637;-63
2022/11/21 04:42:30;;;;;;;3.20;1.47;;;;;;;4.24;100.00;99043.13;5049447;28;20236;-64
2022/11/21 04:44:55;;;;;;;7.87;2.00;;;;;;;4.33;100.00;99042.72;5048069;28;20603;-63
2022/11/21 04:47:20;;;;;;;6.33;1.67;;;;;;;4.27;100.00;99045.53;5039126;28;20182;-63
2022/11/21 04:49:46;;;;;;;3.63;1.40;;;;;;;4.38;100.00;99045.88;5033887;28;20232;-63
2022/11/21 04:52:11;;;;;;;3.70;1.50;;;;;;;4.34;100.00;99042.63;5038544;28;20228;-63
2022/11/21 04:54:37;;;;;;;5.83;1.57;;;;;;;4.40;100.00;99048.34;5033359;28;20208;-64
2022/11/21 04:57:02;;;;;;;3.60;1.47;;;;;;;4.24;100.00;99056.66;5033551;28;20607;-64
2022/11/21 04:59:27;;;;;;;3.17;1.27;;;;;;;4.27;100.00;99046.34;5034144;28;20186;-64
2022/11/21 05:01:53;;;;;;;5.33;1.50;;;;;;;4.33;100.00;99050.34;5037707;28;20221;-63
2022/11/21 05:04:18;;;;;;;4.53;1.70;;;;;;;4.34;100.00;99049.44;5035106;28;20177;-63
2022/11/21 05:06:43;;;;;;;4.63;1.73;;;;;;;4.29;100.00;99053.91;5033110;28;20209;-64
2022/11/21 05:09:08;;;;;;;5.60;1.60;;;;;;;4.48;100.00;99049.63;5048959;28;20222;-65
2022/11/21 05:14:18;;;;;;;4.93;1.50;;;;;;;4.59;100.00;99051.69;5034324;28;20301;-63
2022/11/21 05:16:43;;;;;;;2.70;1.10;;;;;;;4.53;100.00;99042.59;5033074;28;20265;-63
2022/11/21 05:19:09;;;;;;;3.80;1.43;;;;;;;4.66;100.00;99053.06;5015502;28;20276;-64
2022/11/21 05:21:34;;;;;;;3.90;1.47;;;;;;;4.63;100.00;99047.28;5032450;28;20288;-63
2022/11/21 05:23:59;;;;;;;7.77;1.47;;;;;;;4.70;100.00;99048.63;5037320;28;20274;-63
2022/11/21 05:26:25;;;;;;;4.50;1.57;;;;;;;4.69;100.00;99042.72;5032045;28;20672;-64
2022/11/21 05:28:50;;;;;;;2.70;1.70;;;;;;;4.87;100.00;99044.47;5033032;28;20552;-63
2022/11/21 05:31:15;;;;;;;3.03;1.33;;;;;;;4.91;100.00;99044.25;5032434;28;20241;-63
2022/11/21 05:33:41;;;;;;;4.47;1.60;;;;;;;5.10;100.00;99035.72;5039238;28;20194;-63
2022/11/21 05:36:06;;;;;;;7.37;1.53;;;;;;;5.04;100.00;99025.81;5033014;28;20183;-64
2022/11/21 05:38:31;;;;;;;5.57;1.77;;;;;;;5.05;100.00;99030.84;5032618;28;20187;-64
2022/11/21 05:40:57;;;;;;;3.53;1.20;;;;;;;5.20;100.00;99029.25;5029692;28;20288;-64
2022/11/21 05:46:06;;;;;;;3.83;1.63;;;;;;;5.22;100.00;99024.91;5032829;28;20227;-64
2022/11/21 05:48:33;;;;;;;5.20;1.30;;;;;;;5.29;100.00;99028.78;5032364;28;20209;-64
2022/11/21 05:50:58;;;;;;;3.90;1.60;;;;;;;5.21;100.00;99024.97;5030222;28;20233;-63
2022/11/21 05:53:24;;;;;;;4.20;1.40;;;;;;;5.27;100.00;99017.00;5023531;28;20191;-63
2022/11/21 05:55:49;;;;;;;2.73;1.30;;;;;;;5.22;100.00;99018.97;5033011;28;20178;-63
2022/11/21 05:58:14;;;;;;;3.47;1.30;;;;;;;5.36;100.00;99026.75;5032019;28;20181;-63
2022/11/21 06:00:40;;;;;;;6.33;1.90;;;;;;;5.26;100.00;99021.28;5027424;28;20306;-64
2022/11/21 06:05:50;;;;;;;2.17;1.20;;;;;;;5.15;100.00;99026.09;5032961;28;20245;-63
2022/11/21 06:08:15;;;;;;;4.77;1.43;;;;;;;5.09;100.00;99021.31;5031372;28;20243;-64
2022/11/21 06:10:41;;;;;;;5.10;1.30;;;;;;;5.03;100.00;99035.16;5027242;28;20632;-64
2022/11/21 06:13:20;;;;;;;4.53;1.50;;;;;;;5.04;100.00;99033.47;5025535;28;20591;-64
2022/11/21 06:16:07;;;;;;;2.27;1.40;;;;;;;4.95;100.00;99035.53;5011357;28;20230;-64
2022/11/21 06:18:34;;;;;;;2.20;1.10;;;;;;;4.79;100.00;99040.56;5011719;28;20672;-64
2022/11/21 06:21:08;;;;;;;4.10;1.20;;;;;;;4.76;100.00;99044.97;5023307;28;20225;-62
2022/11/21 06:23:34;;;;;;;3.00;1.20;;;;;;;4.75;100.00;99050.94;5022402;28;20318;-65
2022/11/21 06:26:03;;;;;;;3.07;1.30;;;;;;;4.73;100.00;99045.94;5014378;28;20168;-63
2022/11/21 06:28:34;;;;;;;4.93;1.20;;;;;;;4.49;100.00;99045.34;5013618;28;20206;-64
2022/11/21 06:31:04;;;;;;;3.67;1.30;;;;;;;4.65;100.00;99041.22;5036104;28;20234;-65
2022/11/21 06:33:30;;;;;;;5.13;1.50;;;;;;;4.71;100.00;99041.81;5039021;28;20179;-63
2022/11/21 06:35:55;;;;;;;2.60;1.13;;;;;;;4.62;100.00;99045.63;5031852;28;20194;-64
2022/11/21 06:38:20;;;;;;;1.97;0.97;;;;;;;4.60;100.00;99039.75;5031353;28;20306;-63
2022/11/21 06:40:46;;;;;;;7.00;1.30;;;;;;;4.84;100.00;99047.97;5024772;28;20275;-64
2022/11/21 06:43:11;;;;;;;1.80;1.17;;;;;;;4.75;100.00;99040.75;5032688;28;20186;-63
2022/11/21 06:45:37;;;;;;;2.83;1.60;;;;;;;4.72;100.00;99038.38;5031948;28;20190;-65
2022/11/21 06:48:03;;;;;;;3.83;1.50;;;;;;;4.69;100.00;99044.44;5032051;28;20184;-65
2022/11/21 06:50:30;;;;;;;1.17;1.03;;;;;;;4.60;100.00;99044.84;5003888;28;20240;-65
2022/11/21 06:52:59;;;;;;;2.50;1.67;;;;;;;4.58;100.00;99036.50;5036485;28;20645;-63
2022/11/21 06:55:26;;;;;;;2.93;1.30;;;;;;;4.53;100.00;99044.34;5013731;28;20541;-61
2022/11/21 06:57:52;;;;;;;2.90;1.70;;;;;;;4.67;100.00;99043.69;5009794;28;20189;-62
2022/11/21 07:00:19;;;;;;;3.83;2.00;;;;;;;4.60;100.00;99043.16;5018249;28;20185;-63
2022/11/21 07:02:45;;;;;;;4.87;2.00;;;;;;;4.67;100.00;99054.69;5045045;28;20564;-63
2022/11/21 07:05:10;;;;;;;3.00;1.90;;;;;;;4.80;100.00;99054.09;5027103;28;20186;-63
2022/11/21 07:07:35;;;;;;;2.83;1.57;;;;;;;4.84;100.00;99050.53;5031241;28;20229;-63
2022/11/21 07:10:01;;;;;;;2.90;1.67;;;;;;;4.75;100.00;99051.78;5043259;28;20206;-63
2022/11/21 07:15:11;;;;;;;2.90;1.53;;;;;;;4.88;100.00;99041.84;5029482;28;20211;-63
2022/11/21 07:17:36;;;;;;;3.00;1.40;;;;;;;4.92;100.00;99045.88;5030484;28;20949;-62
2022/11/21 07:20:01;;;;;;;1.13;1.03;;;;;;;5.14;100.00;99044.84;5029555;28;20182;-63
2022/11/21 07:22:27;;;;;;;4.07;2.00;;;;;;;5.11;100.00;99052.63;5032561;28;20698;-64
2022/11/21 07:24:52;;;;;;;2.83;1.47;;;;;;;5.08;100.00;99055.34;5031156;28;20198;-64
2022/11/21 07:27:17;;;;;;;3.37;1.30;;;;;;;5.05;100.00;99058.88;5031106;28;20178;-63
2022/11/21 07:29:43;;;;;;;4.00;1.40;;;;;;;5.16;100.00;99058.34;5031125;28;20200;-63
2022/11/21 07:32:08;;;;;;;2.80;1.67;;;;;;;5.14;100.00;99062.69;5037041;28;20696;-64
2022/11/21 07:34:34;;;;;;;2.40;1.30;;;;;;;5.02;100.00;99066.66;5031150;28;20199;-64
2022/11/21 07:37:00;;;;;;;4.97;1.40;;;;;;;5.11;100.00;99066.22;5030453;28;20278;-64
2022/11/21 07:39:25;;;;;;;4.60;1.60;;;;;;;5.20;100.00;99075.13;5029409;28;20536;-63
2022/11/21 07:41:50;;;;;;;3.80;1.93;;;;;;;5.19;100.00;99077.78;5034869;28;20243;-63
2022/11/21 07:44:16;;;;;;;3.37;1.67;;;;;;;5.13;100.00;99076.34;5031163;28;20180;-63
2022/11/21 07:46:41;;;;;;;2.57;1.53;;;;;;;5.17;100.00;99073.56;5030273;28;20621;-64
2022/11/21 07:49:06;;;;;;;4.23;2.47;;;;;;;5.01;100.00;99072.63;5030946;28;20226;-63
2022/11/21 07:51:32;;;;;;;8.10;1.83;;;;;;;5.12;100.00;99072.13;5032049;28;20329;-64
2022/11/21 07:53:57;;;;;;;4.00;1.73;;;;;;;5.20;100.00;99080.25;5035155;28;20228;-62
2022/11/21 07:56:25;;;;;;;4.97;2.03;;;;;;;5.35;100.00;99076.13;5030614;28;20186;-64
2022/11/21 07:58:51;;;;;;;6.67;1.70;;;;;;;5.56;100.00;99070.84;5029531;28;20173;-63
2022/11/21 08:01:16;;;;;;;5.23;1.57;;;;;;;5.86;100.00;99073.56;5001970;28;20228;-63
2022/11/21 08:03:42;;;;;;;4.97;1.87;;;;;;;5.97;100.00;99071.25;5035138;28;20204;-62
2022/11/21 08:06:09;;;;;;;5.37;2.07;;;;;;;6.06;100.00;99067.44;5012992;28;20174;-64
2022/11/21 08:08:34;;;;;;;2.60;1.87;;;;;;;6.17;100.00;99056.66;5012178;28;20269;-62
2022/11/21 08:11:03;;;;;;;7.60;2.00;;;;;;;6.08;100.00;99059.72;5029233;28;20664;-63
2022/11/21 08:13:29;;;;;;;3.40;1.63;;;;;;;6.02;100.00;99053.19;5018241;28;20233;-63
2022/11/21 08:15:54;;;;;;;3.73;1.53;;;;;;;6.20;100.00;99056.53;5018919;28;20687;-62
2022/11/21 08:18:19;;;;;;;1.90;1.40;;;;;;;6.35;100.00;99061.69;5038613;28;20181;-63
2022/11/21 08:20:45;;;;;;;5.47;1.70;;;;;;;6.38;100.00;99057.25;5026096;28;20232;-63
2022/11/21 08:23:11;;;;;;;5.80;1.80;;;;;;;6.41;100.00;99061.38;5022686;28;20273;-62
2022/11/21 08:25:38;;;;;;;3.60;1.40;;;;;;;6.33;100.00;99061.78;5031019;28;20328;-62
2022/11/21 08:28:04;;;;;;;5.30;1.77;;;;;;;6.48;100.00;99060.13;5030872;28;20719;-62
2022/11/21 08:30:30;;;;;;;4.30;1.57;;;;;;;6.40;100.00;99058.00;4986074;28;20712;-63
2022/11/21 08:32:59;;;;;;;4.47;1.63;;;;;;;6.66;100.00;99058.31;5031518;28;20185;-62
2022/11/21 08:35:25;;;;;;;4.87;1.90;;;;;;;6.66;100.00;99048.09;5030330;28;20625;-62
2022/11/21 08:38:08;;;;;;;5.83;1.60;;;;;;;6.66;100.00;99049.81;5025332;28;20189;-61
2022/11/21 08:40:35;;;;;;;4.37;1.57;;;;;;;6.80;100.00;99049.88;5010448;28;20241;-63
2022/11/21 08:43:06;;;;;;;3.83;1.73;;;;;;;6.95;100.00;99054.13;5028493;28;20174;-62
2022/11/21 08:45:33;;;;;;;3.70;1.73;;;;;;;6.87;100.00;99052.91;5034184;28;20182;-63
2022/11/21 08:47:59;;;;;;;3.93;1.87;;;;;;;7.03;100.00;99053.72;5015509;28;20180;-63
2022/11/21 08:50:25;;;;;;;3.87;1.83;;;;;;;7.11;100.00;99048.16;5005940;28;20220;-63
2022/11/21 08:52:51;;;;;;;2.90;1.40;;;;;;;7.23;100.00;99052.56;5029694;28;20178;-64
2022/11/21 08:55:16;;;;;;;4.60;1.60;;;;;;;7.53;100.00;99048.28;5014107;28;20182;-63
2022/11/21 08:57:42;;;;;;;3.87;1.50;;;;;;;7.46;100.00;99041.91;5033566;28;20715;-64
2022/11/21 09:00:11;;;;;;;3.47;1.87;;;;;;;7.64;100.00;99048.50;5025787;28;20263;-64
2022/11/21 09:02:37;;;;;;;6.40;1.70;;;;;;;7.51;100.00;99043.28;5038636;28;20586;-61
2022/11/21 09:05:02;;;;;;;5.07;1.90;;;;;;;8.46;100.00;99029.91;5029488;28;20194;-63
2022/11/21 09:07:27;;;;;;;2.70;1.40;;;;;;;9.44;100.00;99022.75;5032675;28;20300;-63
2022/11/21 09:09:53;;;;;;;3.03;2.00;;;;;;;10.67;100.00;99022.88;5033530;28;21636;-63
2022/11/21 09:12:18;;;;;;;3.23;1.53;;;;;;;11.44;100.00;99021.53;5040050;28;20236;-62
2022/11/21 09:20:11;;;;;;;4.13;1.83;;;;;;;13.10;83.36;99014.59;5024357;28;20220;-62
2022/11/21 09:22:36;;;;;;;2.70;1.40;;;;;;;12.86;85.09;99013.09;5031177;28;20193;-63
2022/11/21 09:25:02;;;;;;;4.43;2.10;;;;;;;14.55;73.95;99026.50;5033280;28;20209;-65
2022/11/21 09:27:29;;;;;;;2.83;1.30;;;;;;;14.51;67.79;99024.22;5026731;28;20649;-63
2022/11/21 09:29:54;;;;;;;3.33;1.67;;;;;;;14.40;69.99;99019.16;5025869;28;20205;-61
2022/11/21 09:32:20;;;;;;;2.97;1.37;;;;;;;14.80;64.67;99022.63;5039944;28;20229;-56
2022/11/21 09:34:45;;;;;;;3.10;1.43;;;;;;;15.32;61.71;99015.28;5029876;28;20182;-57
2022/11/21 09:37:10;;;;;;;7.00;4.27;;;;;;;17.20;54.13;99024.34;5025830;28;20182;-61
2022/11/21 09:39:36;;;;;;;5.77;1.37;;;;;;;16.23;50.87;99029.34;5032881;28;20205;-65
2022/11/21 09:42:07;;;;;;;3.67;1.30;;;;;;;14.88;57.62;99029.69;5038051;28;20228;-62
2022/11/21 09:45:06;;;;;;;4.27;1.30;;;;;;;11.84;81.60;99017.69;5015756;28;20566;-63
2022/11/21 09:47:36;;;;;;;4.83;1.53;;;;;;;13.17;83.24;99018.31;5017736;28;20197;-64
2022/11/21 09:50:12;;;;;;;2.47;1.60;;;;;;;12.89;76.67;99009.44;5015120;28;20194;-66
2022/11/21 09:52:39;;;;;;;4.13;1.43;;;;;;;12.92;79.17;99006.59;5026158;28;20240;-64
2022/11/21 09:55:17;;;;;;;10.00;1.80;;;;;;;12.51;84.62;98997.88;5021766;28;20178;-62
2022/11/21 09:57:46;;;;;;;4.63;1.47;;;;;;;12.59;89.67;98995.50;5031262;28;20602;-64
2022/11/21 10:00:21;;;;;;;4.70;1.53;;;;;;;11.34;94.30;99011.13;5005743;28;20170;-64
2022/11/21 10:02:47;;;;;;;3.53;1.77;;;;;;;11.69;95.56;99005.03;5029533;28;20206;-63
2022/11/21 10:05:14;;;;;;;19.30;17.23;;;;;;;10.57;100.00;98997.00;5013216;28;20217;-64
2022/11/21 10:07:40;;;;;;;7.70;2.40;;;;;;;9.88;100.00;98992.38;5014011;28;20283;-63
2022/11/21 10:10:30;;;;;;;18.03;2.90;;;;;;;9.50;100.00;98986.41;5015691;28;20197;-63
2022/11/21 10:13:18;;;;;;;2.27;1.40;;;;;;;8.80;100.00;98989.34;5027188;28;20182;-63
2022/11/21 10:16:08;;;;;;;7.30;1.70;;;;;;;8.61;100.00;98984.56;5022628;28;20235;-62
2022/11/21 10:19:00;;;;;;;9.17;2.07;;;;;;;8.28;100.00;98980.66;5047543;28;20184;-63
2022/11/21 10:21:57;;;;;;;5.23;1.77;;;;;;;8.00;100.00;98990.88;5033182;28;20271;-62
2022/11/21 10:24:25;;;;;;;4.57;1.77;;;;;;;7.89;100.00;98980.47;5015173;28;20796;-63
2022/11/21 10:26:55;;;;;;;3.73;1.63;;;;;;;7.67;100.00;98981.75;5031760;28;20182;-62
2022/11/21 10:29:33;;;;;;;4.27;1.37;;;;;;;7.61;100.00;98982.13;5030525;28;20166;-62
2022/11/21 10:32:03;;;;;;;3.33;1.70;;;;;;;7.70;100.00;98979.03;5034052;28;20221;-65
2022/11/21 10:34:34;;;;;;;4.03;1.50;;;;;;;7.86;100.00;98976.38;5011275;28;20178;-63
2022/11/21 10:37:09;;;;;;;5.83;1.77;;;;;;;7.94;100.00;98973.31;5013007;28;20649;-63
2022/11/21 10:39:40;;;;;;;4.43;1.33;;;;;;;7.84;100.00;98972.22;5047580;28;20709;-63
2022/11/21 10:42:44;;;;;;;3.10;1.40;;;;;;;7.72;100.00;98966.94;5015234;28;20288;-63
2022/11/21 10:45:17;;;;;;;3.93;1.30;;;;;;;7.68;100.00;98965.50;5019994;28;20190;-63
2022/11/21 10:47:44;;;;;;;5.60;1.93;;;;;;;7.91;100.00;98968.38;5031461;28;20545;-63
2022/11/21 10:50:28;;;;;;;4.03;1.60;;;;;;;7.95;100.00;98967.28;5004566;28;20237;-62
2022/11/21 10:56:20;;;;;;;2.67;1.60;;;;;;;7.85;100.00;98948.28;5030576;28;20225;-65
2022/11/21 10:58:48;;;;;;;3.70;1.70;;;;;;;7.65;100.00;98944.38;5012289;28;20194;-63
2022/11/21 11:01:22;;;;;;;3.73;1.80;;;;;;;7.77;100.00;98948.75;5009909;28;20617;-65
2022/11/21 11:04:04;;;;;;;3.57;1.50;;;;;;;7.74;100.00;98949.75;5027709;28;20248;-65
2022/11/21 11:06:29;;;;;;;2.70;1.20;;;;;;;7.77;100.00;98932.59;5031210;28;20222;-63
2022/11/21 11:08:54;;;;;;;6.23;1.57;;;;;;;7.81;100.00;98939.94;5031149;28;20312;-63
2022/11/21 11:11:21;;;;;;;5.00;1.80;;;;;;;7.71;100.00;98938.88;5031312;28;20225;-63
2022/11/21 11:13:55;;;;;;;5.13;1.70;;;;;;;7.84;100.00;98933.81;5014041;28;20720;-64
2022/11/21 11:16:21;;;;;;;4.20;1.67;;;;;;;7.85;100.00;98935.47;5012736;28;20650;-63
2022/11/21 11:18:54;;;;;;;4.83;2.07;;;;;;;8.03;100.00;98929.19;5031591;28;20188;-62
2022/11/21 11:21:22;;;;;;;3.97;2.27;;;;;;;8.10;100.00;98931.38;5013965;28;20275;-64
2022/11/21 11:23:50;;;;;;;2.53;1.73;;;;;;;8.25;100.00;98925.31;5036960;28;20252;-64
2022/11/21 11:26:27;;;;;;;4.43;1.47;;;;;;;8.03;100.00;98924.06;5012423;28;20220;-63
2022/11/21 11:29:07;;;;;;;8.67;1.60;;;;;;;8.39;100.00;98919.28;5013683;28;20247;-63
2022/11/21 11:32:00;;;;;;;4.67;2.63;;;;;;;8.85;100.00;98913.72;5027581;28;20687;-63
2022/11/21 11:34:38;;;;;;;6.80;2.70;;;;;;;9.16;100.00;98903.97;5020043;28;20187;-63
2022/11/21 11:37:24;;;;;;;6.47;2.10;;;;;;;9.49;100.00;98905.16;5012151;28;20182;-62
2022/11/21 11:40:11;;;;;;;2.87;1.27;;;;;;;9.29;100.00;98891.16;5036782;28;20178;-63
2022/11/21 11:49:14;;;;;;;5.30;1.30;;;;;;;9.13;100.00;98870.00;5020698;28;20193;-62
2022/11/21 11:51:50;;;;;;;4.33;1.80;;;;;;;9.26;100.00;98864.88;5016346;28;20229;-63
2022/11/21 11:54:31;;;;;;;4.53;3.80;;;;;;;9.33;100.00;98863.53;5027080;28;20613;-62
2022/11/21 11:56:58;;;;;;;3.63;1.90;;;;;;;9.43;100.00;98853.44;5029207;28;20601;-63
2022/11/21 11:59:32;;;;;;;2.73;1.40;;;;;;;9.49;100.00;98853.03;5013327;28;20170;-64
2022/11/21 12:02:48;;;;;;;3.17;1.60;;;;;;;9.35;100.00;98849.66;4996196;28;20230;-63
2022/11/21 12:05:22;;;;;;;8.67;1.80;;;;;;;9.20;100.00;98843.00;4935007;29;20253;-62